Time;durP1;ratioP1;P1;durP2;ratioP2;P2;SDS_P1;SDS_P2;PMS_P1;PMS_P2;Temp;Humidity;BMP_temperature;BMP_pressure;BME280_temperature;BME280_humidity;BME280_pressure;Samples;Min_cycle;Max_cycle;Signal;HPM_P1;HPM_P2
2021/06/29 00:00:24;;;;;;;4.20;4.00;;;23.20;45.40;;;;;;4862822;29;20419;-83
2021/06/29 00:03:00;;;;;;;4.40;4.20;;;23.20;45.40;;;;;;4862325;29;20266;-81
2021/06/29 00:05:25;;;;;;;4.40;4.20;;;23.20;45.40;;;;;;4846201;29;20195;-82
2021/06/29 00:07:51;;;;;;;4.97;4.50;;;23.20;45.40;;;;;;4863435;29;20424;-81
2021/06/29 00:10:16;;;;;;;3.80;3.60;;;23.20;45.40;;;;;;4849472;29;20272;-81
2021/06/29 00:12:42;;;;;;;4.50;4.30;;;23.20;45.40;;;;;;4849536;29;20559;-82
2021/06/29 00:15:10;;;;;;;4.73;4.40;;;23.20;45.40;;;;;;4849174;29;20721;-81
2021/06/29 00:17:36;;;;;;;3.77;3.67;;;23.20;45.40;;;;;;4866160;29;20179;-82
2021/06/29 00:20:02;;;;;;;4.53;4.23;;;23.20;45.30;;;;;;4865681;29;20776;-82
2021/06/29 00:22:27;;;;;;;4.27;4.07;;;23.20;45.30;;;;;;4865362;29;20203;-82
2021/06/29 00:24:53;;;;;;;4.10;3.90;;;23.20;45.20;;;;;;4865721;29;20936;-83
2021/06/29 00:27:19;;;;;;;4.20;4.00;;;23.20;45.20;;;;;;4848441;29;20701;-81
2021/06/29 00:29:44;;;;;;;4.23;4.03;;;23.20;45.20;;;;;;4849221;29;20186;-81
2021/06/29 00:32:10;;;;;;;4.33;3.80;;;23.20;45.20;;;;;;4865093;29;20202;-81
2021/06/29 00:34:35;;;;;;;4.33;4.10;;;23.10;45.10;;;;;;4865337;29;20426;-81
2021/06/29 00:37:01;;;;;;;4.47;4.13;;;23.20;45.20;;;;;;4865181;29;20179;-82
2021/06/29 00:39:27;;;;;;;3.53;3.43;;;23.20;45.10;;;;;;4864985;29;20190;-82
2021/06/29 00:41:52;;;;;;;4.20;4.00;;;23.10;45.00;;;;;;4864699;29;20545;-82
2021/06/29 00:44:23;;;;;;;4.30;4.10;;;23.10;45.00;;;;;;4864928;29;20170;-82
2021/06/29 00:46:49;;;;;;;4.53;4.33;;;23.10;45.00;;;;;;4865140;29;20213;-83
2021/06/29 00:49:15;;;;;;;4.63;4.43;;;23.10;44.90;;;;;;4864371;29;20447;-81
2021/06/29 00:51:41;;;;;;;4.10;3.90;;;23.10;44.90;;;;;;4847749;29;20419;-81
2021/06/29 00:54:08;;;;;;;4.70;4.40;;;23.10;45.00;;;;;;4864384;29;20431;-80
2021/06/29 00:56:36;;;;;;;4.30;4.10;;;23.10;44.90;;;;;;4864320;29;21057;-80
2021/06/29 00:59:02;;;;;;;4.33;4.13;;;23.10;44.90;;;;;;4847810;29;20487;-81
2021/06/29 01:01:28;;;;;;;4.73;4.53;;;23.10;44.90;;;;;;4847608;29;20423;-81
2021/06/29 01:03:53;;;;;;;4.40;4.20;;;23.10;45.00;;;;;;4864418;29;20214;-81
2021/06/29 01:06:19;;;;;;;4.27;4.07;;;23.10;45.00;;;;;;4864493;29;20211;-82
2021/06/29 01:08:45;;;;;;;4.93;4.63;;;23.10;44.90;;;;;;4864283;29;20175;-83
2021/06/29 01:11:12;;;;;;;5.03;4.67;;;23.10;44.90;;;;;;4846784;29;20781;-80
2021/06/29 01:16:13;;;;;;;4.90;4.70;;;23.10;45.00;;;;;;5262749;23;20989;-80
2021/06/29 01:18:42;;;;;;;4.83;4.63;;;23.10;45.00;;;;;;4855050;29;20435;-81
2021/06/29 01:21:17;;;;;;;4.80;4.57;;;23.10;44.90;;;;;;4861555;29;20436;-80
2021/06/29 01:23:47;;;;;;;4.37;4.17;;;23.10;45.00;;;;;;4849000;29;20429;-80
2021/06/29 01:26:23;;;;;;;4.17;3.97;;;23.10;45.00;;;;;;4834386;29;20449;-81
2021/06/29 01:31:16;;;;;;;4.23;3.93;;;23.10;44.90;;;;;;4828112;29;20868;-80
2021/06/29 01:33:45;;;;;;;4.67;4.47;;;23.10;44.90;;;;;;4811204;29;20956;-80
2021/06/29 01:36:17;;;;;;;4.57;4.37;;;23.10;44.90;;;;;;4827614;29;20921;-80
2021/06/29 01:38:43;;;;;;;4.73;4.53;;;23.10;44.80;;;;;;4828245;29;20856;-80
2021/06/29 01:41:11;;;;;;;4.60;4.40;;;23.10;44.90;;;;;;4811982;29;20841;-80
2021/06/29 01:43:59;;;;;;;4.80;4.60;;;23.10;45.50;;;;;;4827979;29;20477;-80
2021/06/29 01:46:28;;;;;;;4.37;4.17;;;23.10;44.80;;;;;;4811878;29;20486;-80
2021/06/29 01:48:54;;;;;;;4.63;4.43;;;23.10;44.80;;;;;;4827844;29;20435;-80
2021/06/29 01:51:20;;;;;;;4.73;4.53;;;23.10;44.80;;;;;;4827771;29;20935;-80
2021/06/29 01:53:49;;;;;;;4.27;4.07;;;23.10;44.80;;;;;;4811135;29;20433;-79
2021/06/29 01:56:15;;;;;;;4.50;4.30;;;23.10;44.80;;;;;;4810488;29;20601;-79
2021/06/29 01:58:43;;;;;;;5.03;4.57;;;23.10;44.80;;;;;;4827438;29;20421;-79
2021/06/29 02:01:09;;;;;;;4.83;4.60;;;23.10;44.80;;;;;;4811828;29;20439;-80
2021/06/29 02:03:35;;;;;;;4.67;4.47;;;23.10;44.80;;;;;;4811800;29;20846;-80
2021/06/29 02:06:08;;;;;;;4.87;4.67;;;23.10;44.80;;;;;;4811360;29;20494;-80
2021/06/29 02:08:34;;;;;;;4.93;4.70;;;23.10;44.80;;;;;;4827975;29;20214;-80
2021/06/29 02:11:00;;;;;;;4.20;4.00;;;23.10;44.80;;;;;;4811104;29;20437;-80
2021/06/29 02:13:26;;;;;;;5.20;4.90;;;23.10;44.80;;;;;;4810365;29;20461;-80
2021/06/29 02:15:52;;;;;;;5.00;4.80;;;23.10;45.50;;;;;;4826951;29;20220;-79
2021/06/29 02:18:17;;;;;;;4.93;4.73;;;23.10;44.80;;;;;;4810759;29;20210;-80
2021/06/29 02:20:44;;;;;;;4.53;4.33;;;23.00;44.70;;;;;;4827013;29;20459;-79
2021/06/29 02:23:14;;;;;;;4.33;4.13;;;23.10;44.70;;;;;;4827144;29;20219;-80
2021/06/29 02:25:40;;;;;;;4.50;4.30;;;23.10;44.80;;;;;;4826817;29;20441;-80
2021/06/29 02:28:06;;;;;;;4.77;4.57;;;23.10;44.70;;;;;;4795215;29;20446;-80
2021/06/29 02:30:32;;;;;;;4.20;4.00;;;23.00;44.60;;;;;;4809823;29;20924;-80
2021/06/29 02:32:58;;;;;;;5.20;4.93;;;23.00;44.70;;;;;;4809631;29;20282;-80
2021/06/29 02:35:24;;;;;;;4.67;4.37;;;23.10;44.80;;;;;;4809457;29;20724;-80
2021/06/29 02:37:51;;;;;;;4.93;4.73;;;23.10;44.80;;;;;;4809798;29;20659;-80
2021/06/29 02:40:16;;;;;;;5.00;4.70;;;23.10;44.80;;;;;;4809318;29;20441;-80
2021/06/29 02:42:42;;;;;;;4.70;4.50;;;23.00;44.60;;;;;;4825134;29;20417;-80
2021/06/29 02:45:08;;;;;;;4.67;4.37;;;23.10;44.70;;;;;;4824946;29;20207;-80
2021/06/29 02:47:36;;;;;;;4.63;4.43;;;23.00;44.60;;;;;;4824783;29;20670;-80
2021/06/29 02:50:04;;;;;;;5.10;4.80;;;23.00;44.60;;;;;;4824322;29;20417;-80
2021/06/29 02:52:29;;;;;;;4.53;4.33;;;23.10;44.70;;;;;;4807923;29;20433;-79
2021/06/29 02:54:55;;;;;;;4.80;4.40;;;23.00;44.60;;;;;;4807868;29;20465;-79
2021/06/29 02:57:20;;;;;;;4.67;4.47;;;23.00;44.60;;;;;;4808106;29;20240;-80
2021/06/29 02:59:46;;;;;;;5.23;4.93;;;23.10;44.70;;;;;;4808440;29;20184;-80
2021/06/29 03:02:12;;;;;;;4.90;4.70;;;23.00;44.60;;;;;;4825217;29;20616;-80
2021/06/29 03:04:38;;;;;;;5.03;4.67;;;23.10;44.70;;;;;;4810739;29;20186;-80
2021/06/29 03:07:03;;;;;;;4.60;4.30;;;23.00;44.60;;;;;;4832372;29;20539;-80
2021/06/29 03:09:29;;;;;;;4.83;4.53;;;23.10;44.70;;;;;;4843074;29;20178;-80
2021/06/29 03:11:54;;;;;;;4.47;4.27;;;23.10;44.70;;;;;;4829775;29;20191;-80
2021/06/29 03:14:20;;;;;;;4.80;4.60;;;23.10;44.80;;;;;;4862681;29;20243;-80
2021/06/29 03:16:46;;;;;;;4.30;4.10;;;23.10;44.80;;;;;;4828782;29;20221;-80
2021/06/29 03:19:11;;;;;;;5.20;4.90;;;23.00;44.70;;;;;;4829150;29;20198;-80
2021/06/29 03:21:37;;;;;;;4.70;4.40;;;23.00;44.70;;;;;;4839285;29;20198;-80
2021/06/29 03:24:06;;;;;;;4.07;3.87;;;23.00;44.70;;;;;;4847030;29;20206;-80
2021/06/29 03:26:32;;;;;;;4.63;4.43;;;23.00;44.70;;;;;;4863612;29;20224;-80
2021/06/29 03:28:58;;;;;;;4.47;4.27;;;23.10;44.80;;;;;;4847347;29;20810;-80
2021/06/29 03:31:23;;;;;;;3.93;3.83;;;23.10;44.80;;;;;;4863532;29;20235;-80
2021/06/29 03:33:49;;;;;;;4.50;4.30;;;23.00;44.70;;;;;;4862681;29;20183;-80
2021/06/29 03:36:16;;;;;;;5.50;5.20;;;23.00;44.70;;;;;;4862083;29;20221;-80
2021/06/29 03:38:42;;;;;;;5.27;4.97;;;23.00;44.60;;;;;;4830868;29;20673;-80
2021/06/29 03:41:07;;;;;;;4.93;4.63;;;23.00;44.60;;;;;;4845996;29;20415;-80
2021/06/29 03:43:36;;;;;;;5.33;4.97;;;23.00;44.60;;;;;;4848008;29;20427;-80
2021/06/29 03:46:02;;;;;;;4.50;4.30;;;23.00;44.70;;;;;;4851255;29;20207;-80
2021/06/29 03:48:28;;;;;;;4.80;4.50;;;23.00;44.70;;;;;;4843614;29;20436;-80
2021/06/29 03:50:55;;;;;;;5.00;4.70;;;23.00;44.70;;;;;;4841690;29;20459;-82
2021/06/29 03:53:20;;;;;;;4.67;4.47;;;23.00;44.70;;;;;;4835879;29;20192;-80
2021/06/29 03:55:46;;;;;;;4.60;4.40;;;23.00;44.60;;;;;;4844533;29;20475;-80
2021/06/29 03:58:11;;;;;;;4.23;4.03;;;23.00;44.70;;;;;;4866069;29;20194;-80
2021/06/29 04:00:37;;;;;;;4.87;4.67;;;23.00;44.70;;;;;;4849645;29;20669;-80
2021/06/29 04:03:03;;;;;;;4.77;4.47;;;23.00;44.70;;;;;;4865830;29;20210;-81
2021/06/29 04:05:28;;;;;;;4.40;4.20;;;23.00;44.70;;;;;;4866277;29;20198;-81
2021/06/29 04:07:54;;;;;;;4.60;4.33;;;23.00;44.70;;;;;;4866141;29;20190;-81
2021/06/29 04:10:20;;;;;;;4.90;4.60;;;23.00;44.70;;;;;;4849895;29;20197;-81
2021/06/29 04:12:45;;;;;;;5.40;4.97;;;23.00;44.70;;;;;;4866355;29;20183;-81
2021/06/29 04:15:11;;;;;;;5.03;4.77;;;23.00;44.70;;;;;;4865593;29;20350;-81
2021/06/29 04:17:37;;;;;;;4.57;4.37;;;23.00;44.80;;;;;;4866472;29;20202;-81
2021/06/29 04:20:05;;;;;;;4.60;4.40;;;23.00;44.70;;;;;;4850236;29;20427;-82
2021/06/29 04:22:31;;;;;;;4.40;4.20;;;23.00;44.80;;;;;;4850177;29;20190;-81
2021/06/29 04:24:57;;;;;;;4.90;4.60;;;23.00;44.80;;;;;;4849916;29;20423;-82
2021/06/29 04:27:22;;;;;;;5.20;4.93;;;23.00;44.90;;;;;;4866955;29;20185;-81
2021/06/29 04:29:49;;;;;;;4.90;4.70;;;23.00;44.80;;;;;;4850731;29;20802;-81
2021/06/29 04:32:27;;;;;;;4.93;4.63;;;23.00;44.90;;;;;;4867441;29;20198;-81
2021/06/29 04:34:53;;;;;;;5.37;5.07;;;23.00;44.90;;;;;;4850020;29;20471;-81
2021/06/29 04:37:18;;;;;;;5.27;5.07;;;23.00;45.00;;;;;;4850053;29;20435;-81
2021/06/29 04:39:56;;;;;;;6.60;6.20;;;23.00;44.90;;;;;;4849578;29;20226;-82
2021/06/29 04:42:23;;;;;;;6.10;5.70;;;23.00;45.00;;;;;;4849404;29;20679;-82
2021/06/29 04:44:49;;;;;;;6.43;6.13;;;23.00;44.90;;;;;;4849206;29;20427;-81
2021/06/29 04:47:15;;;;;;;5.97;5.67;;;23.00;45.20;;;;;;4850454;29;20442;-81
2021/06/29 04:49:43;;;;;;;6.10;5.70;;;23.00;45.30;;;;;;4848188;29;20186;-82
2021/06/29 04:52:08;;;;;;;5.73;5.43;;;23.00;45.30;;;;;;4853633;29;20435;-83
2021/06/29 04:54:34;;;;;;;6.20;5.90;;;23.00;45.50;;;;;;4836617;29;20424;-82
2021/06/29 04:57:02;;;;;;;6.30;5.90;;;23.00;45.50;;;;;;4837400;29;20206;-82
2021/06/29 04:59:27;;;;;;;7.00;6.40;;;23.00;45.50;;;;;;4854449;29;20174;-82
2021/06/29 05:01:53;;;;;;;5.87;5.57;;;23.00;45.60;;;;;;4837384;29;20416;-83
2021/06/29 05:04:19;;;;;;;6.70;6.10;;;23.00;45.60;;;;;;4837602;29;20201;-83
2021/06/29 05:06:44;;;;;;;6.43;5.97;;;23.00;45.50;;;;;;4836458;29;20314;-83
2021/06/29 05:09:13;;;;;;;6.63;6.23;;;23.00;45.50;;;;;;4835629;29;20179;-83
2021/06/29 08:19:27;;;;;;;4.20;4.00;;;22.90;42.20;;;;;;4861629;29;20477;-87
2021/06/29 08:22:33;;;;;;;4.30;4.00;;;23.00;42.60;;;;;;4823921;29;20452;-85
2021/06/29 08:25:26;;;;;;;3.77;3.63;;;23.00;42.00;;;;;;4804418;29;20491;-83
2021/06/29 08:31:37;;;;;;;3.70;3.50;;;23.00;42.10;;;;;;4818371;29;20427;-85
2021/06/29 08:44:44;;;;;;;3.83;3.60;;;23.10;41.40;;;;;;4787861;29;20882;-84
2021/06/29 09:05:01;;;;;;;4.97;3.57;;;23.10;40.80;;;;;;4753699;30;20403;-84
2021/06/29 09:08:18;;;;;;;5.77;3.97;;;23.10;40.90;;;;;;4739840;30;20449;-83
2021/06/29 09:11:20;;;;;;;4.03;3.90;;;23.00;41.20;;;;;;4753824;30;20524;-82
2021/06/29 09:14:15;;;;;;;4.53;4.23;;;23.00;41.20;;;;;;4756083;29;20448;-82
2021/06/29 09:16:46;;;;;;;3.77;3.60;;;23.00;41.40;;;;;;4870804;29;20577;-84
2021/06/29 09:19:14;;;;;;;4.20;3.80;;;23.00;41.20;;;;;;4852225;29;20852;-82
2021/06/29 09:21:50;;;;;;;3.47;3.37;;;23.00;40.20;;;;;;4866551;29;20768;-82
2021/06/29 09:24:16;;;;;;;3.80;3.60;;;23.10;40.50;;;;;;4851438;29;20431;-84
2021/06/29 09:27:28;;;;;;;3.77;3.67;;;23.10;40.90;;;;;;4850531;29;20499;-83
2021/06/29 09:51:35;;;;;;;3.63;3.43;;;23.20;40.30;;;;;;4789663;30;21260;-84
2021/06/29 10:44:56;;;;;;;4.83;4.43;;;23.30;40.40;;;;;;4773114;29;20505;-83
2021/06/29 11:27:49;;;;;;;4.70;4.50;;;23.30;40.90;;;;;;4805139;29;20972;-81
2021/06/29 11:44:57;;;;;;;4.20;3.90;;;23.30;40.50;;;;;;4761839;30;20455;-83
2021/06/29 12:11:53;;;;;;;4.40;4.10;;;23.40;40.40;;;;;;4806075;29;20738;-81
2021/06/29 12:31:17;;;;;;;4.40;4.20;;;23.40;40.60;;;;;;4845279;29;20487;-81
2021/06/29 12:33:47;;;;;;;4.50;4.30;;;23.40;40.70;;;;;;4845653;29;20428;-82
2021/06/29 12:36:20;;;;;;;5.17;4.77;;;23.40;40.80;;;;;;4828957;29;20499;-81
2021/06/29 12:38:54;;;;;;;5.23;4.73;;;23.40;40.90;;;;;;4843824;29;20516;-82
2021/06/29 12:41:24;;;;;;;5.27;4.70;;;23.40;40.90;;;;;;4846708;29;20436;-83
2021/06/29 12:43:55;;;;;;;4.93;4.40;;;23.40;41.00;;;;;;4849262;29;20883;-84
2021/06/29 12:46:24;;;;;;;5.60;5.10;;;23.40;41.00;;;;;;4849550;29;20943;-83
2021/06/29 12:49:03;;;;;;;5.70;5.23;;;23.40;41.10;;;;;;4833327;29;20438;-84
2021/06/29 12:51:31;;;;;;;6.80;4.73;;;23.40;41.10;;;;;;4849352;29;20412;-83
2021/06/29 12:54:00;;;;;;;5.00;4.60;;;23.40;41.10;;;;;;4832990;29;20476;-84
2021/06/29 12:56:39;;;;;;;9.30;5.10;;;23.40;41.20;;;;;;4848574;29;20998;-84
2021/06/29 12:59:06;;;;;;;4.70;4.40;;;23.40;41.20;;;;;;4849107;29;20412;-83
2021/06/29 13:01:33;;;;;;;6.33;4.93;;;23.40;41.30;;;;;;4832425;29;20417;-84
2021/06/29 13:04:06;;;;;;;5.27;4.87;;;23.40;41.20;;;;;;4848719;29;20444;-83
2021/06/29 13:06:37;;;;;;;5.40;4.90;;;23.40;41.40;;;;;;4848270;29;20447;-83
2021/06/29 13:09:07;;;;;;;5.53;4.93;;;23.40;41.30;;;;;;4831679;29;20429;-83
2021/06/29 13:11:33;;;;;;;5.97;5.50;;;23.40;41.30;;;;;;4832308;29;20436;-83
2021/06/29 13:14:01;;;;;;;5.63;5.10;;;23.40;41.30;;;;;;4848905;29;20449;-83
2021/06/29 13:16:27;;;;;;;4.50;4.20;;;23.40;41.40;;;;;;4832249;29;20218;-84
2021/06/29 13:18:53;;;;;;;5.13;4.73;;;23.40;41.50;;;;;;4848568;29;20417;-83
2021/06/29 13:21:52;;;;;;;5.67;5.17;;;23.40;41.50;;;;;;4847339;29;20415;-83
2021/06/29 13:24:17;;;;;;;4.40;4.00;;;23.40;41.50;;;;;;4831283;29;20485;-83
2021/06/29 13:26:51;;;;;;;4.50;4.20;;;23.30;41.50;;;;;;4847514;29;20509;-83
2021/06/29 13:29:29;;;;;;;4.37;3.97;;;23.30;41.60;;;;;;4831238;29;20601;-82
2021/06/29 13:31:55;;;;;;;5.40;4.90;;;23.30;41.60;;;;;;4847043;29;20444;-83
2021/06/29 13:34:23;;;;;;;5.00;4.70;;;23.30;41.70;;;;;;4847779;29;20424;-82
2021/06/29 13:36:50;;;;;;;11.73;5.40;;;23.30;41.70;;;;;;4848871;29;20468;-83
2021/06/29 13:39:30;;;;;;;4.50;4.13;;;23.30;41.70;;;;;;4847421;29;20497;-83
2021/06/29 13:41:57;;;;;;;4.80;4.40;;;23.30;41.70;;;;;;4830796;29;20429;-82
2021/06/29 13:44:23;;;;;;;8.23;4.53;;;23.30;41.70;;;;;;4846673;29;20971;-81
2021/06/29 13:47:03;;;;;;;4.70;4.30;;;23.30;41.80;;;;;;4847460;29;20545;-83
2021/06/29 13:49:29;;;;;;;4.60;4.20;;;23.30;41.70;;;;;;4846596;29;20416;-83
2021/06/29 13:52:05;;;;;;;4.70;4.30;;;23.30;41.80;;;;;;4830311;29;20492;-83
2021/06/29 13:54:31;;;;;;;4.33;3.97;;;23.30;41.80;;;;;;4829737;29;20187;-83
2021/06/29 13:56:56;;;;;;;4.30;4.00;;;23.30;41.80;;;;;;4845875;29;20880;-82
2021/06/29 13:59:37;;;;;;;4.93;4.50;;;23.30;41.80;;;;;;4846277;29;20187;-83
2021/06/29 14:02:03;;;;;;;4.07;3.87;;;23.30;41.80;;;;;;4830147;29;20233;-82
2021/06/29 14:04:29;;;;;;;4.33;4.03;;;23.30;41.90;;;;;;4830041;29;20846;-82
2021/06/29 14:07:11;;;;;;;4.30;4.00;;;23.30;41.90;;;;;;4846337;29;20448;-84
2021/06/29 14:09:38;;;;;;;4.27;4.07;;;23.30;41.80;;;;;;4846381;29;20188;-82
2021/06/29 14:12:05;;;;;;;4.70;4.30;;;23.20;41.80;;;;;;4846189;29;20428;-83
2021/06/29 14:14:32;;;;;;;4.10;3.90;;;23.20;41.80;;;;;;4830191;29;20432;-82
2021/06/29 14:17:04;;;;;;;4.30;4.00;;;23.20;41.70;;;;;;4830371;29;20487;-84
2021/06/29 14:19:29;;;;;;;3.67;3.47;;;23.20;41.80;;;;;;4830399;29;20433;-83
2021/06/29 14:21:56;;;;;;;3.67;3.50;;;23.20;41.80;;;;;;4834736;29;20980;-83
2021/06/29 14:24:22;;;;;;;3.50;3.30;;;23.20;41.80;;;;;;4831502;29;20659;-82
2021/06/29 14:26:49;;;;;;;3.87;3.70;;;23.20;41.80;;;;;;4843982;29;20442;-82
2021/06/29 14:29:14;;;;;;;3.70;3.50;;;23.20;41.90;;;;;;4828278;29;20459;-84
2021/06/29 14:31:40;;;;;;;4.13;3.40;;;23.20;41.80;;;;;;4844317;29;20195;-83
2021/06/29 14:34:06;;;;;;;4.13;3.83;;;23.20;41.90;;;;;;4827753;29;20191;-81
2021/06/29 14:36:37;;;;;;;3.97;3.63;;;23.20;41.90;;;;;;4812032;29;20714;-83
2021/06/29 14:39:05;;;;;;;4.00;3.70;;;23.20;41.90;;;;;;4828234;29;20427;-83
2021/06/29 14:41:46;;;;;;;3.90;3.70;;;23.20;41.90;;;;;;4844522;29;20429;-83
2021/06/29 14:44:13;;;;;;;3.83;3.53;;;23.20;41.90;;;;;;4844512;29;20452;-82
2021/06/29 14:46:41;;;;;;;4.13;3.67;;;23.20;41.90;;;;;;4844549;29;20448;-82
2021/06/29 14:49:07;;;;;;;3.73;3.53;;;23.20;42.00;;;;;;4812338;29;20440;-83
2021/06/29 14:51:36;;;;;;;4.00;3.70;;;23.20;42.00;;;;;;4828250;29;20431;-83
2021/06/29 14:54:02;;;;;;;4.10;3.70;;;23.20;42.00;;;;;;4827614;29;20428;-84
2021/06/29 14:56:28;;;;;;;4.30;4.00;;;23.20;42.00;;;;;;4843256;29;20479;-82
2021/06/29 14:58:59;;;;;;;4.10;3.80;;;23.20;42.00;;;;;;4826978;29;20428;-83
2021/06/29 15:01:25;;;;;;;4.30;4.10;;;23.20;42.00;;;;;;4846171;29;20941;-81
2021/06/29 15:03:51;;;;;;;3.53;3.33;;;23.20;42.00;;;;;;4828925;29;20433;-81
2021/06/29 15:06:18;;;;;;;4.00;3.80;;;23.20;42.00;;;;;;4844223;29;20975;-81
2021/06/29 15:08:44;;;;;;;4.90;4.60;;;23.10;41.90;;;;;;4827578;29;20525;-81
2021/06/29 15:11:28;;;;;;;4.00;3.80;;;23.10;42.00;;;;;;4827524;29;20730;-81
2021/06/29 15:13:59;;;;;;;4.43;4.20;;;23.10;42.00;;;;;;4845731;29;20448;-81
2021/06/29 15:16:27;;;;;;;3.83;3.60;;;23.10;42.00;;;;;;4829561;29;20524;-80
2021/06/29 15:18:53;;;;;;;4.47;4.17;;;23.20;42.00;;;;;;4827780;29;20423;-81
2021/06/29 15:21:19;;;;;;;3.70;3.50;;;23.10;42.00;;;;;;4826411;29;20924;-81
2021/06/29 15:24:03;;;;;;;3.90;3.70;;;23.20;42.10;;;;;;4827466;29;20424;-81
2021/06/29 15:26:29;;;;;;;4.07;3.70;;;23.20;42.10;;;;;;4843391;29;20553;-81
2021/06/29 15:29:52;;;;;;;3.80;3.60;;;23.10;42.00;;;;;;4827224;29;20451;-81
2021/06/29 15:32:22;;;;;;;3.83;3.43;;;23.10;42.10;;;;;;4827113;29;20251;-81
2021/06/29 15:34:49;;;;;;;3.90;3.60;;;23.10;42.00;;;;;;4827037;29;20520;-81
2021/06/29 15:37:15;;;;;;;3.57;3.27;;;23.20;42.10;;;;;;4842661;29;20516;-81
2021/06/29 15:39:40;;;;;;;4.27;3.87;;;23.10;42.00;;;;;;4845355;29;20428;-81
2021/06/29 15:42:06;;;;;;;3.50;3.30;;;23.10;42.10;;;;;;4830310;29;20265;-81
2021/06/29 15:44:32;;;;;;;3.60;3.30;;;23.10;42.00;;;;;;4829688;29;20503;-81
2021/06/29 15:47:02;;;;;;;4.20;4.00;;;23.10;42.00;;;;;;4830002;29;20447;-81
2021/06/29 15:49:29;;;;;;;3.67;3.43;;;23.10;42.10;;;;;;4841112;29;20199;-81
2021/06/29 15:52:02;;;;;;;4.30;3.27;;;23.10;42.00;;;;;;4830179;29;20991;-81
2021/06/29 15:54:31;;;;;;;3.03;2.93;;;23.10;42.10;;;;;;4846318;29;20171;-81
2021/06/29 15:57:00;;;;;;;3.53;3.23;;;23.10;42.10;;;;;;4829764;29;20475;-81
2021/06/29 15:59:27;;;;;;;3.40;3.30;;;23.10;42.00;;;;;;4849701;29;20420;-82
2021/06/29 16:01:55;;;;;;;3.43;3.23;;;23.10;42.10;;;;;;4833424;29;20439;-82
2021/06/29 16:04:21;;;;;;;3.50;3.40;;;23.10;42.10;;;;;;4833113;29;20435;-82
2021/06/29 16:06:49;;;;;;;3.93;3.63;;;23.10;42.10;;;;;;4848906;29;20531;-82
2021/06/29 16:09:16;;;;;;;3.80;3.63;;;23.10;42.10;;;;;;4848876;29;20175;-82
2021/06/29 16:11:41;;;;;;;3.03;2.83;;;23.10;42.00;;;;;;4832841;29;20420;-82
2021/06/29 16:14:07;;;;;;;3.40;3.20;;;23.10;42.00;;;;;;4848254;29;20423;-82
2021/06/29 16:16:34;;;;;;;3.47;3.37;;;23.10;42.10;;;;;;4848991;29;20625;-83
2021/06/29 16:19:00;;;;;;;3.40;3.20;;;23.10;42.10;;;;;;4833056;29;20432;-82
2021/06/29 16:21:29;;;;;;;3.30;3.20;;;23.10;42.00;;;;;;4848684;29;20493;-82
2021/06/29 16:23:57;;;;;;;3.60;3.30;;;23.10;42.00;;;;;;4832558;29;20420;-82
2021/06/29 16:26:26;;;;;;;3.50;3.20;;;23.10;42.10;;;;;;4848596;29;20451;-82
2021/06/29 16:29:11;;;;;;;3.80;3.17;;;23.10;42.10;;;;;;4832932;29;20440;-82
2021/06/29 16:31:37;;;;;;;3.33;3.23;;;23.10;42.10;;;;;;4831893;29;20432;-82
2021/06/29 16:34:06;;;;;;;3.60;3.40;;;23.10;42.10;;;;;;4848200;29;20436;-82
2021/06/29 16:36:32;;;;;;;3.87;3.67;;;23.10;42.20;;;;;;4816847;29;20487;-82
2021/06/29 16:38:58;;;;;;;5.00;3.50;;;23.10;42.20;;;;;;4835167;29;21030;-82
2021/06/29 16:41:24;;;;;;;4.03;3.83;;;23.10;42.30;;;;;;4850169;29;20428;-82
2021/06/29 16:43:50;;;;;;;3.60;3.40;;;23.10;42.30;;;;;;4850720;29;21061;-79
2021/06/29 16:46:17;;;;;;;3.63;3.43;;;23.10;43.10;;;;;;4861107;29;20216;-81
2021/06/29 16:48:43;;;;;;;3.10;2.90;;;23.10;42.30;;;;;;4851365;29;20495;-81
2021/06/29 16:51:10;;;;;;;3.50;3.30;;;23.10;42.30;;;;;;4850221;29;20444;-81
2021/06/29 16:53:40;;;;;;;3.40;3.20;;;23.10;42.40;;;;;;4850435;29;20191;-81
2021/06/29 16:56:19;;;;;;;3.23;3.13;;;23.10;42.40;;;;;;4850400;29;20485;-81
2021/06/29 16:58:46;;;;;;;3.50;3.30;;;23.10;42.40;;;;;;4850633;29;20572;-81
2021/06/29 17:01:12;;;;;;;2.87;2.77;;;23.10;42.30;;;;;;4867045;29;20420;-81
2021/06/29 17:03:38;;;;;;;3.67;3.37;;;23.10;42.30;;;;;;4851008;29;20420;-81
2021/06/29 17:06:03;;;;;;;3.40;3.20;;;23.10;42.30;;;;;;4866412;29;20491;-82
2021/06/29 17:08:29;;;;;;;2.90;2.70;;;23.10;42.40;;;;;;4855296;29;20561;-82
2021/06/29 17:10:55;;;;;;;3.30;3.20;;;23.10;42.40;;;;;;4849357;29;20673;-82
2021/06/29 17:13:21;;;;;;;3.57;3.37;;;23.10;42.40;;;;;;4850341;29;20600;-81
2021/06/29 17:15:47;;;;;;;3.00;2.90;;;23.10;42.30;;;;;;4847975;29;20203;-82
2021/06/29 17:18:12;;;;;;;3.83;3.50;;;23.10;42.50;;;;;;4847935;29;20416;-82
2021/06/29 17:20:39;;;;;;;6.50;5.03;;;23.10;42.40;;;;;;4831764;29;20183;-82
2021/06/29 17:23:11;;;;;;;6.57;5.90;;;23.10;42.60;;;;;;4847352;29;20183;-83
2021/06/29 17:25:38;;;;;;;7.23;6.73;;;23.10;42.60;;;;;;4833192;29;20460;-82
2021/06/29 17:28:04;;;;;;;9.30;7.97;;;23.10;42.80;;;;;;4847796;29;20784;-82
2021/06/29 17:30:33;;;;;;;8.00;7.30;;;23.10;42.90;;;;;;4847033;29;20424;-82
2021/06/29 17:33:00;;;;;;;8.47;7.77;;;23.10;42.80;;;;;;4847116;29;20535;-82
2021/06/29 17:35:26;;;;;;;9.33;8.43;;;23.10;43.00;;;;;;4845864;29;20484;-82
2021/06/29 17:37:52;;;;;;;7.63;6.50;;;23.10;43.10;;;;;;4847668;29;20412;-82
2021/06/29 17:40:22;;;;;;;8.23;7.47;;;23.10;43.10;;;;;;4830884;29;20188;-82
2021/06/29 17:42:48;;;;;;;8.23;7.17;;;23.10;43.00;;;;;;4846624;29;20320;-83
2021/06/29 17:45:14;;;;;;;8.40;7.60;;;23.10;43.00;;;;;;4846542;29;20444;-82
2021/06/29 17:47:41;;;;;;;8.30;7.50;;;23.10;43.10;;;;;;4848162;29;20481;-82
2021/06/29 17:50:09;;;;;;;7.43;6.87;;;23.10;43.10;;;;;;4830898;29;20187;-82
2021/06/29 17:52:36;;;;;;;7.30;6.70;;;23.10;43.10;;;;;;4831656;29;20515;-83
2021/06/29 17:55:04;;;;;;;7.40;6.80;;;23.10;43.10;;;;;;4846128;29;20425;-82
2021/06/29 17:57:30;;;;;;;6.43;5.93;;;23.10;43.10;;;;;;4848260;29;20424;-82
2021/06/29 17:59:56;;;;;;;7.13;6.37;;;23.10;43.10;;;;;;4830259;29;20460;-82
2021/06/29 18:02:22;;;;;;;6.50;5.90;;;23.10;43.10;;;;;;4846339;29;20484;-82
2021/06/29 18:04:48;;;;;;;7.73;6.20;;;23.10;43.00;;;;;;4846621;29;20456;-82
2021/06/29 18:07:13;;;;;;;6.27;5.73;;;23.10;43.10;;;;;;4831441;29;20184;-82
2021/06/29 18:09:39;;;;;;;5.60;5.20;;;23.10;43.10;;;;;;4846825;29;20167;-81
2021/06/29 18:12:06;;;;;;;5.40;5.00;;;23.10;43.10;;;;;;4831078;29;20278;-81
2021/06/29 18:14:32;;;;;;;6.10;5.27;;;23.10;43.10;;;;;;4845575;29;20581;-82
2021/06/29 18:17:00;;;;;;;5.77;5.37;;;23.10;43.10;;;;;;4845490;29;20875;-82
2021/06/29 18:19:29;;;;;;;5.27;4.83;;;23.10;43.10;;;;;;4831423;29;20413;-82
2021/06/29 18:21:55;;;;;;;4.90;4.50;;;23.10;43.10;;;;;;4829760;29;20691;-82
2021/06/29 18:24:20;;;;;;;5.07;4.60;;;23.10;43.10;;;;;;4845210;29;20168;-82
2021/06/29 18:26:46;;;;;;;5.50;5.00;;;23.10;43.10;;;;;;4829856;29;20243;-82
2021/06/29 18:29:13;;;;;;;6.13;5.63;;;23.10;43.10;;;;;;4844508;29;20188;-82
2021/06/29 18:31:39;;;;;;;5.00;4.70;;;23.10;43.10;;;;;;4844843;29;20218;-82
2021/06/29 18:34:17;;;;;;;5.10;4.77;;;23.10;43.10;;;;;;4845172;29;20448;-82
2021/06/29 18:36:45;;;;;;;5.87;5.47;;;23.10;43.10;;;;;;4844199;29;20229;-83
2021/06/29 18:39:11;;;;;;;4.60;4.30;;;23.10;43.10;;;;;;4845057;29;20436;-82
2021/06/29 18:41:37;;;;;;;4.50;4.30;;;23.10;43.10;;;;;;4845758;29;20424;-82
2021/06/29 18:44:02;;;;;;;5.00;4.70;;;23.10;43.10;;;;;;4845231;29;20246;-82
2021/06/29 18:46:29;;;;;;;4.40;4.13;;;23.10;43.10;;;;;;4828103;29;20242;-83
2021/06/29 18:48:55;;;;;;;4.30;3.80;;;23.10;43.10;;;;;;4843526;29;20202;-81
2021/06/29 18:51:21;;;;;;;4.30;4.07;;;23.10;43.10;;;;;;4843159;29;20959;-81
2021/06/29 18:53:47;;;;;;;3.83;3.63;;;23.10;43.10;;;;;;4843913;29;20420;-81
2021/06/29 18:56:18;;;;;;;3.50;3.30;;;23.10;43.10;;;;;;4827066;29;20223;-81
2021/06/29 18:58:53;;;;;;;4.10;3.90;;;23.00;43.00;;;;;;4812344;29;20432;-81
2021/06/29 19:01:22;;;;;;;3.60;3.40;;;23.00;43.00;;;;;;4842659;29;20431;-81
2021/06/29 19:03:49;;;;;;;4.80;4.40;;;23.10;43.10;;;;;;4842892;29;20804;-81
2021/06/29 19:06:17;;;;;;;4.00;3.80;;;23.10;43.10;;;;;;4841293;29;20449;-81
2021/06/29 19:08:50;;;;;;;3.90;3.60;;;23.00;43.00;;;;;;4826447;29;20594;-81
2021/06/29 19:11:21;;;;;;;3.33;3.23;;;23.00;43.00;;;;;;4841468;29;20484;-80
2021/06/29 19:13:47;;;;;;;3.53;3.33;;;23.00;43.00;;;;;;4842829;29;20834;-81
2021/06/29 19:16:12;;;;;;;3.60;3.40;;;23.00;43.00;;;;;;4841987;29;20507;-81
2021/06/29 19:18:38;;;;;;;4.63;4.27;;;23.10;43.10;;;;;;4826918;29;20196;-81
2021/06/29 19:21:04;;;;;;;3.77;3.50;;;23.00;42.90;;;;;;4844799;29;20172;-82
2021/06/29 19:23:29;;;;;;;3.87;3.67;;;23.10;43.10;;;;;;4847736;29;20171;-82
2021/06/29 19:25:55;;;;;;;4.63;3.50;;;23.10;43.10;;;;;;4846940;29;20798;-82
2021/06/29 19:28:25;;;;;;;4.60;4.13;;;23.00;43.00;;;;;;4846711;29;20175;-81